Time;durP1;ratioP1;P1;durP2;ratioP2;P2;SDS_P1;SDS_P2;PMS_P1;PMS_P2;Temp;Humidity;BMP_temperature;BMP_pressure;BME280_temperature;BME280_humidity;BME280_pressure;Samples;Min_cycle;Max_cycle;Signal;HPM_P1;HPM_P2
2023/06/25 21:44:13;;;;;;;16.17;10.23;;;23.70;65.60;;;;;;5085708;28;20386;-42
2023/06/25 21:46:41;;;;;;;15.65;8.85;;;23.70;66.40;;;;;;5067698;28;20098;-41
2023/06/25 21:49:10;;;;;;;14.55;8.73;;;23.80;66.20;;;;;;5068700;28;20024;-43
2023/06/25 21:51:36;;;;;;;16.75;10.27;;;23.80;66.10;;;;;;5068651;28;20514;-47
2023/06/25 21:54:02;;;;;;;13.75;9.80;;;23.80;66.40;;;;;;5068304;28;20021;-42
2023/06/25 21:56:28;;;;;;;18.48;9.88;;;23.80;66.50;;;;;;5068545;28;20442;-44
2023/06/25 21:58:53;;;;;;;14.35;10.43;;;23.80;66.90;;;;;;5074419;22;20503;-53
2023/06/25 22:01:19;;;;;;;17.45;10.88;;;23.80;67.30;;;;;;5048393;28;20025;-55
2023/06/25 22:03:45;;;;;;;16.73;9.93;;;23.80;67.50;;;;;;5048137;28;20035;-54
2023/06/25 22:06:12;;;;;;;21.42;11.40;;;23.80;67.80;;;;;;5048374;28;20480;-56
2023/06/25 22:08:38;;;;;;;14.73;10.38;;;23.70;67.60;;;;;;5063438;28;20059;-56
2023/06/25 22:11:04;;;;;;;14.75;11.02;;;23.80;67.70;;;;;;5068097;28;20028;-56
2023/06/25 22:13:30;;;;;;;20.02;11.60;;;23.80;67.70;;;;;;5067749;28;20430;-56
2023/06/25 22:15:56;;;;;;;19.83;12.25;;;23.80;67.70;;;;;;5068035;28;20048;-56
2023/06/25 22:18:21;;;;;;;26.23;11.98;;;23.70;67.80;;;;;;5067840;28;20100;-56
2023/06/25 22:20:47;;;;;;;22.15;13.75;;;23.70;68.30;;;;;;5067992;28;20020;-56
2023/06/25 22:23:13;;;;;;;21.80;14.77;;;23.70;68.30;;;;;;5067503;28;20508;-55
2023/06/25 22:25:39;;;;;;;18.90;13.52;;;23.80;68.60;;;;;;5067875;28;20075;-55
2023/06/25 22:28:05;;;;;;;16.90;11.43;;;23.70;68.60;;;;;;5067642;28;20024;-55
2023/06/25 22:30:31;;;;;;;18.50;11.00;;;23.70;68.30;;;;;;5050174;28;20613;-55
2023/06/25 22:32:56;;;;;;;19.75;11.00;;;23.70;68.50;;;;;;5067459;28;20039;-53
2023/06/25 22:35:22;;;;;;;17.60;11.45;;;23.70;68.60;;;;;;5067762;28;20024;-54
2023/06/25 22:37:48;;;;;;;19.33;11.68;;;23.70;68.70;;;;;;5067319;28;20146;-50
2023/06/25 22:40:14;;;;;;;18.75;10.93;;;23.70;68.90;;;;;;5067689;28;20527;-56
2023/06/25 22:42:40;;;;;;;17.10;10.95;;;23.60;68.80;;;;;;5065127;28;20071;-56
2023/06/25 22:45:06;;;;;;;14.13;10.50;;;23.60;69.00;;;;;;5048886;28;20025;-55
2023/06/25 22:47:32;;;;;;;15.02;11.40;;;23.60;69.10;;;;;;5029926;28;20156;-55
2023/06/25 22:49:57;;;;;;;16.00;10.77;;;23.60;69.30;;;;;;5049869;28;20117;-50
2023/06/25 22:52:23;;;;;;;14.35;10.65;;;23.60;69.60;;;;;;5061825;28;20096;-56
2023/06/25 22:54:50;;;;;;;15.52;10.75;;;23.60;69.60;;;;;;5061386;28;20025;-56
2023/06/25 22:57:17;;;;;;;15.68;10.30;;;23.60;69.40;;;;;;5061765;28;20060;-52
2023/06/25 22:59:43;;;;;;;16.45;10.38;;;23.50;69.40;;;;;;5069249;28;20031;-55
2023/06/25 23:02:09;;;;;;;16.73;10.50;;;23.50;69.40;;;;;;5064177;28;20029;-53
2023/06/25 23:04:34;;;;;;;14.15;10.82;;;23.50;69.60;;;;;;5064004;28;20032;-56
2023/06/25 23:07:00;;;;;;;15.27;10.63;;;23.50;69.70;;;;;;5060448;28;20028;-53
2023/06/25 23:09:26;;;;;;;18.55;11.75;;;23.50;69.80;;;;;;5056102;28;20032;-54
2023/06/25 23:11:52;;;;;;;14.52;10.35;;;23.50;69.70;;;;;;5073902;28;20028;-56
2023/06/25 23:14:17;;;;;;;19.65;11.18;;;23.50;69.90;;;;;;5073900;28;20064;-55
2023/06/25 23:16:43;;;;;;;15.57;10.45;;;23.50;69.70;;;;;;5073821;28;20023;-56
2023/06/25 23:19:10;;;;;;;17.55;10.82;;;23.60;69.80;;;;;;5073766;28;20028;-56
2023/06/25 23:21:45;;;;;;;18.80;11.70;;;23.60;69.60;;;;;;5073590;28;20032;-56
2023/06/25 23:24:11;;;;;;;15.48;11.02;;;23.60;69.50;;;;;;5073340;28;20052;-56
2023/06/25 23:26:44;;;;;;;15.10;10.85;;;23.60;69.90;;;;;;5073707;28;20025;-55
2023/06/25 23:29:13;;;;;;;21.17;10.77;;;23.60;69.40;;;;;;5073853;28;20418;-51
2023/06/25 23:31:39;;;;;;;24.10;11.25;;;23.60;69.30;;;;;;5073623;28;20107;-55
2023/06/25 23:34:04;;;;;;;16.77;11.77;;;23.60;69.30;;;;;;5073241;28;20523;-55
2023/06/25 23:36:30;;;;;;;20.70;10.63;;;23.60;69.30;;;;;;5073508;28;20017;-55
2023/06/25 23:38:56;;;;;;;17.10;11.63;;;23.60;69.30;;;;;;5073373;28;20104;-56
2023/06/25 23:41:22;;;;;;;16.08;10.80;;;23.60;69.30;;;;;;5073464;28;20548;-52
2023/06/25 23:43:47;;;;;;;16.92;11.10;;;23.60;69.30;;;;;;5073017;28;20041;-56
2023/06/25 23:46:13;;;;;;;15.98;10.57;;;23.60;69.40;;;;;;5073294;28;20027;-56
2023/06/25 23:48:39;;;;;;;15.32;10.57;;;23.60;69.40;;;;;;5073131;28;20032;-55
2023/06/25 23:51:05;;;;;;;15.73;10.95;;;23.60;69.40;;;;;;5073205;28;20369;-48
2023/06/25 23:53:30;;;;;;;17.20;10.75;;;23.60;69.40;;;;;;5072834;28;20036;-56
2023/06/25 23:55:56;;;;;;;16.38;11.65;;;23.60;69.40;;;;;;5054420;28;20029;-55
2023/06/25 23:58:22;;;;;;;16.33;11.23;;;23.60;69.50;;;;;;5072907;28;20046;-54
